createdAt,value
2022-11-27T06:02:16.454Z,5.66
2022-11-27T06:07:41.877Z,5.61
2022-11-27T06:13:02.650Z,5.57
2022-11-27T06:18:24.052Z,5.52
2022-11-27T06:23:48.201Z,5.50
2022-11-27T06:29:09.749Z,5.50
2022-11-27T06:34:34.336Z,5.49
2022-11-27T06:39:55.348Z,5.48
2022-11-27T06:45:16.488Z,5.44
2022-11-27T06:50:37.322Z,5.40
2022-11-27T06:55:58.278Z,5.35
2022-11-27T07:01:21.437Z,5.29
2022-11-27T07:06:42.948Z,5.31
2022-11-27T07:12:05.612Z,5.34
2022-11-27T07:17:26.623Z,5.44
2022-11-27T07:22:47.516Z,5.48
2022-11-27T07:28:08.196Z,5.51
2022-11-27T07:33:29.076Z,5.49
2022-11-27T07:38:50.240Z,5.50
2022-11-27T07:44:11.125Z,5.62
2022-11-27T07:49:32.073Z,5.69
2022-11-27T07:54:53.040Z,5.72
2022-11-27T08:00:14.393Z,5.76
2022-11-27T08:05:36.138Z,5.83
2022-11-27T08:10:56.998Z,5.82
2022-11-27T08:16:18.420Z,5.80
2022-11-27T08:21:39.192Z,5.75
2022-11-27T08:27:00.224Z,5.85
2022-11-27T08:32:21.072Z,5.90
2022-11-27T08:37:41.950Z,5.94
2022-11-27T08:43:02.533Z,6.06
2022-11-27T08:48:24.050Z,6.26
2022-11-27T08:53:45.850Z,6.47
2022-11-27T08:59:06.986Z,6.53
2022-11-27T09:04:28.658Z,6.66
2022-11-27T09:09:49.702Z,6.67
2022-11-27T09:15:12.045Z,6.74
2022-11-27T09:20:35.788Z,6.70
2022-11-27T09:26:01.595Z,6.67
2022-11-27T09:31:23.242Z,6.70
2022-11-27T09:36:44.264Z,6.76
2022-11-27T09:42:08.674Z,6.99
2022-11-27T09:47:43.984Z,7.18
2022-11-27T09:53:32.932Z,7.47
2022-11-27T09:58:59.114Z,7.65
2022-11-27T10:04:21.055Z,8.13
2022-11-27T10:09:41.764Z,8.78
2022-11-27T10:15:50.146Z,9.03
2022-11-27T10:21:46.254Z,8.88
2022-11-27T10:27:38.728Z,8.75
2022-11-27T10:33:00.872Z,8.45
2022-11-27T10:38:28.211Z,8.53
2022-11-27T10:43:54.245Z,8.82
2022-11-27T10:49:15.095Z,8.93
2022-11-27T10:54:38.727Z,9.47
2022-11-27T11:00:19.831Z,9.74
2022-11-27T11:06:04.605Z,10.04
2022-11-27T11:11:26.589Z,10.33
2022-11-27T11:16:48.671Z,10.40
2022-11-27T11:22:14.931Z,10.11
2022-11-27T11:27:36.147Z,10.43
2022-11-27T11:33:02.322Z,10.67
2022-11-27T11:38:33.035Z,10.66
2022-11-27T11:44:02.232Z,10.53
2022-11-27T11:49:26.128Z,9.71
2022-11-27T11:55:12.204Z,9.29
2022-11-27T12:01:11.443Z,9.44
2022-11-27T12:07:00.391Z,9.99
2022-11-27T12:12:21.470Z,10.62
2022-11-27T12:17:48.354Z,10.78
2022-11-27T12:23:30.735Z,11.17
2022-11-27T12:29:39.467Z,11.59
2022-11-27T12:35:21.743Z,11.60
2022-11-27T12:40:42.894Z,10.42
2022-11-27T12:46:22.720Z,10.02
2022-11-27T12:51:53.467Z,9.67
2022-11-27T12:57:21.188Z,10.10
2022-11-27T13:02:54.107Z,10.41
2022-11-27T13:08:30.593Z,10.51
2022-11-27T13:14:18.715Z,10.30
2022-11-27T13:19:47.605Z,9.96
2022-11-27T13:25:14.282Z,9.67
2022-11-27T13:30:37.540Z,9.24
2022-11-27T13:35:58.737Z,8.99
2022-11-27T13:41:26.270Z,8.73
2022-11-27T13:46:53.902Z,8.52
2022-11-27T13:52:20.635Z,8.16
2022-11-27T13:57:52.860Z,7.92
2022-11-27T14:03:26.813Z,7.70
2022-11-27T14:08:59.482Z,7.45
2022-11-27T14:14:25.078Z,7.25
2022-11-27T14:19:47.474Z,7.04
2022-11-27T14:25:28.457Z,6.83
2022-11-27T14:30:56.845Z,6.63
2022-11-27T14:36:36.597Z,6.45
2022-11-27T14:42:02.629Z,6.29
2022-11-27T14:47:23.889Z,6.14
2022-11-27T14:52:49.666Z,6.02
2022-11-27T14:58:19.509Z,5.87
2022-11-27T15:03:41.271Z,5.73
2022-11-27T15:09:30.249Z,5.63
2022-11-27T15:15:18.516Z,5.48
2022-11-27T15:20:45.020Z,5.36
2022-11-27T15:26:15.017Z,5.25
2022-11-27T15:31:50.470Z,5.13
2022-11-27T15:37:25.144Z,5.02
2022-11-27T15:42:46.114Z,4.90
2022-11-27T15:48:16.221Z,4.84
2022-11-27T15:53:37.032Z,4.75
2022-11-27T15:58:57.799Z,4.68
2022-11-27T16:04:18.782Z,4.60
2022-11-27T16:09:40.107Z,4.50
2022-11-27T16:15:00.884Z,4.38
2022-11-27T16:20:21.658Z,4.27
2022-11-27T16:25:42.470Z,4.16
2022-11-27T16:31:07.849Z,4.08
2022-11-27T16:36:29.213Z,3.97
2022-11-27T16:41:50.072Z,3.89
2022-11-27T16:47:12.674Z,3.81
2022-11-27T16:52:34.358Z,3.77
2022-11-27T16:57:55.261Z,3.73
2022-11-27T17:03:16.670Z,3.66
2022-11-27T17:08:38.467Z,3.61
2022-11-27T17:14:01.696Z,3.54
2022-11-27T17:19:24.032Z,3.47
2022-11-27T17:24:45.092Z,3.43
2022-11-27T17:30:08.106Z,3.43
2022-11-27T17:35:30.920Z,3.37
2022-11-27T17:40:52.415Z,3.29
2022-11-27T17:46:19.532Z,3.23
2022-11-27T17:51:41.259Z,3.16
2022-11-27T17:57:03.585Z,3.15
2022-11-27T18:02:24.376Z,3.09
2022-11-27T18:07:46.185Z,3.05
2022-11-27T18:13:06.949Z,2.98
2022-11-27T18:18:28.098Z,3.01
2022-11-27T18:24:21.371Z,3.09
2022-11-27T18:29:31.200Z,3.17
2022-11-27T18:34:54.386Z,3.27
2022-11-27T18:40:15.435Z,3.41
2022-11-27T18:45:36.364Z,3.51
2022-11-27T18:51:09.484Z,3.61
2022-11-27T18:56:31.932Z,3.67
2022-11-27T19:01:53.353Z,3.70
2022-11-27T19:07:14.304Z,3.67
2022-11-27T19:12:36.195Z,3.67
2022-11-27T19:17:56.918Z,3.62
2022-11-27T19:23:18.075Z,3.57
2022-11-27T19:28:39.206Z,3.57
2022-11-27T19:34:02.507Z,3.58
2022-11-27T19:39:23.463Z,3.57
2022-11-27T19:44:44.360Z,3.52
2022-11-27T19:50:06.840Z,3.48
2022-11-27T19:55:27.885Z,3.47
2022-11-27T20:00:49.185Z,3.47
2022-11-27T20:06:16.955Z,3.46
2022-11-27T20:11:38.114Z,3.47
2022-11-27T20:16:58.929Z,3.45
2022-11-27T20:22:19.691Z,3.44
2022-11-27T20:27:40.607Z,3.42
2022-11-27T20:33:07.305Z,3.41
2022-11-27T20:38:29.011Z,3.36
2022-11-27T20:43:53.944Z,3.37
2022-11-27T20:49:16.293Z,3.39
2022-11-27T20:54:38.009Z,3.46
2022-11-27T20:59:59.849Z,3.52
2022-11-27T21:05:20.759Z,3.53
2022-11-27T21:10:41.614Z,3.54
2022-11-27T21:16:02.683Z,3.56
2022-11-27T21:21:23.469Z,3.56
2022-11-27T21:26:45.068Z,3.52
2022-11-27T21:32:08.150Z,3.52
2022-11-27T21:37:29.527Z,3.50
2022-11-27T21:42:52.025Z,3.51
2022-11-27T21:48:14.478Z,3.44
2022-11-27T21:53:35.658Z,3.42
2022-11-27T21:58:57.064Z,3.36
2022-11-27T22:04:18.012Z,3.32
2022-11-27T22:09:38.811Z,3.26
2022-11-27T22:14:59.781Z,3.23
2022-11-27T22:20:20.732Z,3.23
2022-11-27T22:25:41.529Z,3.40
2022-11-27T22:31:22.359Z,3.54
2022-11-27T22:36:43.194Z,3.28
2022-11-27T22:42:04.642Z,3.03
